Time;durP1;ratioP1;P1;durP2;ratioP2;P2;SDS_P1;SDS_P2;PMS_P1;PMS_P2;Temp;Humidity;BMP_temperature;BMP_pressure;BME280_temperature;BME280_humidity;BME280_pressure;Samples;Min_cycle;Max_cycle;Signal;HPM_P1;HPM_P2
2022/06/01 00:01:07;;;;;;;;;;;22.10;90.80;;;;;;4850052;29;20423;-60
2022/06/01 00:03:36;;;;;;;;;;;22.10;90.70;;;;;;4859560;29;19943;-60
2022/06/01 00:06:03;;;;;;;;;;;22.10;90.70;;;;;;4852709;29;19932;-61
2022/06/01 00:08:30;;;;;;;;;;;22.10;90.60;;;;;;4847853;29;20443;-58
2022/06/01 00:10:58;;;;;;;;;;;22.10;90.70;;;;;;4848087;29;20225;-58
2022/06/01 00:13:26;;;;;;;;;;;22.10;90.60;;;;;;4844923;29;19983;-60
2022/06/01 00:15:54;;;;;;;;;;;22.10;90.60;;;;;;4851509;29;19928;-60
2022/06/01 00:18:22;;;;;;;;;;;22.10;90.60;;;;;;4840223;29;19933;-59
2022/06/01 00:20:50;;;;;;;;;;;22.10;90.60;;;;;;4838623;29;19939;-58
2022/06/01 00:23:17;;;;;;;;;;;22.00;90.60;;;;;;4844670;29;19929;-58
2022/06/01 00:25:44;;;;;;;;;;;22.10;90.50;;;;;;4851815;29;19936;-60
2022/06/01 00:28:12;;;;;;;;;;;22.10;90.60;;;;;;4857824;29;19936;-58
2022/06/01 00:30:39;;;;;;;;;;;22.00;90.50;;;;;;4855185;29;19932;-59
2022/06/01 00:33:06;;;;;;;;;;;22.00;90.60;;;;;;4837598;29;20476;-56
2022/06/01 00:35:34;;;;;;;;;;;22.00;90.80;;;;;;4846707;29;19943;-59
2022/06/01 00:38:01;;;;;;;;;;;22.00;90.90;;;;;;4842456;29;19932;-58
2022/06/01 00:40:29;;;;;;;;;;;22.00;90.90;;;;;;4845308;29;19943;-60
2022/06/01 00:42:57;;;;;;;;;;;22.00;91.00;;;;;;4838985;29;19932;-59
2022/06/01 00:45:26;;;;;;;;;;;22.00;90.90;;;;;;4850668;29;19943;-61
2022/06/01 00:47:53;;;;;;;;;;;22.00;90.80;;;;;;4840935;29;19929;-61
2022/06/01 00:50:26;;;;;;;;;;;22.00;90.90;;;;;;4832603;29;19928;-59
2022/06/01 00:52:57;;;;;;;;;;;22.00;90.90;;;;;;4846646;29;19955;-59
2022/06/01 00:55:35;;;;;;;;;;;22.00;90.90;;;;;;4855315;29;20432;-59
2022/06/01 00:58:12;;;;;;;;;;;21.90;90.90;;;;;;4845651;29;20329;-61
2022/06/01 01:00:40;;;;;;;;;;;22.00;90.90;;;;;;4856052;29;19940;-57
2022/06/01 01:03:10;;;;;;;;;;;22.00;90.80;;;;;;4847593;29;19932;-60
2022/06/01 01:05:39;;;;;;;;;;;22.00;90.90;;;;;;4845734;29;19932;-57
2022/06/01 01:08:06;;;;;;;;;;;22.00;90.90;;;;;;4836868;29;20435;-59
2022/06/01 01:10:33;;;;;;;;;;;22.00;91.00;;;;;;4842208;29;20001;-59
2022/06/01 01:13:04;;;;;;;;;;;21.90;90.90;;;;;;4844275;29;19940;-58
2022/06/01 01:15:58;;;;;;;;;;;21.90;90.90;;;;;;4855678;29;19933;-61
2022/06/01 01:18:28;;;;;;;;;;;21.90;90.90;;;;;;4843543;29;19928;-57
2022/06/01 01:21:04;;;;;;;;;;;21.90;90.90;;;;;;4851553;29;19935;-59
2022/06/01 01:23:38;;;;;;;;;;;21.90;90.90;;;;;;4847477;29;19929;-59
2022/06/01 01:26:06;;;;;;;;;;;21.90;91.00;;;;;;4862925;29;19943;-60
2022/06/01 01:28:33;;;;;;;;;;;21.90;91.30;;;;;;4843931;29;19944;-57
2022/06/01 01:31:04;;;;;;;;;;;21.90;91.00;;;;;;4829333;29;19929;-60
2022/06/01 01:33:32;;;;;;;;;;;21.90;91.00;;;;;;4843521;29;19988;-59
2022/06/01 01:36:04;;;;;;;;;;;21.90;90.90;;;;;;4858325;29;19969;-58
2022/06/01 01:38:35;;;;;;;;;;;21.90;90.90;;;;;;4844991;29;20345;-58
2022/06/01 01:41:25;;;;;;;;;;;21.90;90.90;;;;;;4856301;29;19935;-59
2022/06/01 01:44:05;;;;;;;;;;;21.90;90.90;;;;;;4843407;29;20375;-58
2022/06/01 01:46:32;;;;;;;;;;;21.90;90.90;;;;;;4848177;29;20146;-59
2022/06/01 01:49:02;;;;;;;;;;;21.90;90.90;;;;;;4836477;29;19939;-58
2022/06/01 01:51:29;;;;;;;;;;;21.90;90.90;;;;;;4842874;29;19933;-61
2022/06/01 01:53:59;;;;;;;;;;;21.90;91.10;;;;;;4847795;29;19933;-60
2022/06/01 01:56:38;;;;;;;;;;;21.90;91.00;;;;;;4848252;29;19936;-58
2022/06/01 01:59:13;;;;;;;;;;;21.90;91.00;;;;;;4858500;29;19938;-60
2022/06/01 02:01:44;;;;;;;;;;;21.90;91.00;;;;;;4836700;29;19928;-59
2022/06/01 02:07:20;;;;;;;;;;;21.90;91.20;;;;;;4854800;29;19943;-58
2022/06/01 02:12:42;;;;;;;;;;;21.90;91.40;;;;;;4847947;29;19932;-55
2022/06/01 02:15:12;;;;;;;;;;;21.90;91.40;;;;;;4837126;29;19932;-59
2022/06/01 02:17:52;;;;;;;;;;;21.80;91.40;;;;;;4849862;29;19932;-64
2022/06/01 02:20:19;;;;;;;;;;;21.90;91.50;;;;;;4841106;29;20030;-60
2022/06/01 02:22:46;;;;;;;;;;;21.80;91.60;;;;;;4837252;29;19955;-59
2022/06/01 02:25:14;;;;;;;;;;;21.80;91.60;;;;;;4850631;29;20334;-58
2022/06/01 02:27:42;;;;;;;;;;;21.80;91.60;;;;;;4835940;29;20320;-58
2022/06/01 02:30:09;;;;;;;;;;;21.80;91.60;;;;;;4850479;29;19939;-57
2022/06/01 02:32:37;;;;;;;;;;;21.80;91.60;;;;;;4852550;29;20514;-57
2022/06/01 02:35:05;;;;;;;;;;;21.80;91.60;;;;;;4847773;29;20651;-59
2022/06/01 02:37:33;;;;;;;;;;;21.80;91.60;;;;;;4839226;29;19929;-59
2022/06/01 02:40:03;;;;;;;;;;;21.80;91.70;;;;;;4846662;29;19938;-56
2022/06/01 02:42:30;;;;;;;;;;;21.80;91.70;;;;;;4838899;29;19932;-55
2022/06/01 02:44:59;;;;;;;;;;;21.80;91.70;;;;;;4826103;29;19936;-60
2022/06/01 02:47:27;;;;;;;;;;;21.80;91.60;;;;;;4847236;29;19936;-58
2022/06/01 02:49:55;;;;;;;;;;;21.80;91.60;;;;;;4835920;29;20420;-58
2022/06/01 02:52:23;;;;;;;;;;;21.80;91.50;;;;;;4838601;29;20968;-59
2022/06/01 02:54:51;;;;;;;;;;;21.80;91.40;;;;;;4836605;29;20444;-59
2022/06/01 02:57:19;;;;;;;;;;;21.80;91.40;;;;;;4855742;29;19932;-60
2022/06/01 02:59:46;;;;;;;;;;;21.80;91.40;;;;;;4838910;29;19932;-60
2022/06/01 03:02:13;;;;;;;;;;;21.80;91.50;;;;;;4848042;29;19939;-58
2022/06/01 03:04:42;;;;;;;;;;;21.80;91.30;;;;;;4841682;29;20393;-58
2022/06/01 03:07:10;;;;;;;;;;;21.80;91.40;;;;;;4855144;29;19944;-58
2022/06/01 03:09:38;;;;;;;;;;;21.80;91.40;;;;;;4860046;29;19932;-60
2022/06/01 03:12:06;;;;;;;;;;;21.80;91.30;;;;;;4844678;29;20293;-55
2022/06/01 03:14:36;;;;;;;;;;;21.80;91.30;;;;;;4821881;29;19932;-58
2022/06/01 03:17:06;;;;;;;;;;;21.70;91.30;;;;;;4847842;29;19932;-59
2022/06/01 03:19:34;;;;;;;;;;;21.70;91.30;;;;;;4827846;29;20432;-60
2022/06/01 03:22:01;;;;;;;;;;;21.70;91.40;;;;;;4824527;29;20417;-60
2022/06/01 03:24:29;;;;;;;;;;;21.70;91.30;;;;;;4840830;29;19970;-59
2022/06/01 03:26:56;;;;;;;;;;;21.70;91.30;;;;;;4851127;29;19936;-58
2022/06/01 03:29:24;;;;;;;;;;;21.70;91.30;;;;;;4844076;29;20404;-59
2022/06/01 03:31:52;;;;;;;;;;;21.70;91.30;;;;;;4844568;29;19933;-59
2022/06/01 03:34:19;;;;;;;;;;;21.70;91.20;;;;;;4840315;29;19928;-58
2022/06/01 03:36:46;;;;;;;;;;;21.70;91.20;;;;;;4851555;29;20408;-58
2022/06/01 03:39:14;;;;;;;;;;;21.70;91.20;;;;;;4852328;29;19936;-61
2022/06/01 03:41:41;;;;;;;;;;;21.70;91.20;;;;;;4850396;29;19951;-58
2022/06/01 03:46:59;;;;;;;;;;;21.70;91.20;;;;;;4858534;29;19939;-57
2022/06/01 03:49:27;;;;;;;;;;;21.70;91.10;;;;;;4824664;29;19948;-55
2022/06/01 03:51:54;;;;;;;;;;;21.70;91.10;;;;;;4853129;29;19933;-58
2022/06/01 03:54:21;;;;;;;;;;;21.70;91.10;;;;;;4841963;29;19932;-60
2022/06/01 03:56:48;;;;;;;;;;;21.70;91.10;;;;;;4855143;29;19936;-57
2022/06/01 03:59:15;;;;;;;;;;;21.70;91.00;;;;;;4844646;29;19932;-61
2022/06/01 04:01:42;;;;;;;;;;;21.70;91.00;;;;;;4852772;29;19932;-61
2022/06/01 04:04:09;;;;;;;;;;;21.70;90.90;;;;;;4847520;29;19943;-63
2022/06/01 04:06:36;;;;;;;;;;;21.70;91.10;;;;;;4854158;29;19940;-61
2022/06/01 04:09:04;;;;;;;;;;;21.70;91.10;;;;;;4841119;29;19936;-63
2022/06/01 04:11:31;;;;;;;;;;;21.70;91.00;;;;;;4848853;29;19980;-64
2022/06/01 04:13:59;;;;;;;;;;;21.70;90.90;;;;;;4866687;29;19943;-66
2022/06/01 04:16:28;;;;;;;;;;;21.70;90.80;;;;;;4854172;29;19928;-63
2022/06/01 04:18:55;;;;;;;;;;;21.80;90.80;;;;;;4841038;29;19932;-61
2022/06/01 04:21:24;;;;;;;;;;;21.70;90.80;;;;;;4848327;29;19939;-60
2022/06/01 04:23:51;;;;;;;;;;;21.80;90.70;;;;;;4839513;29;19932;-60
2022/06/01 04:26:19;;;;;;;;;;;21.70;90.70;;;;;;4837317;29;19944;-62
2022/06/01 04:28:46;;;;;;;;;;;21.70;90.70;;;;;;4850786;29;19928;-62
2022/06/01 04:31:13;;;;;;;;;;;21.80;90.70;;;;;;4857141;29;20528;-59
2022/06/01 04:33:42;;;;;;;;;;;21.80;90.70;;;;;;4878532;29;19934;-62
2022/06/01 04:36:09;;;;;;;;;;;21.80;90.60;;;;;;4861721;29;19936;-63
2022/06/01 04:38:36;;;;;;;;;;;21.80;90.60;;;;;;4858976;29;19943;-62
2022/06/01 04:41:04;;;;;;;;;;;21.80;90.50;;;;;;4870652;29;19936;-62
2022/06/01 04:43:31;;;;;;;;;;;21.80;90.50;;;;;;4870029;29;19932;-62
2022/06/01 04:45:58;;;;;;;;;;;21.80;90.50;;;;;;4870191;29;19936;-59
2022/06/01 04:48:26;;;;;;;;;;;21.80;90.50;;;;;;4874128;29;19935;-62
2022/06/01 04:50:53;;;;;;;;;;;21.80;90.50;;;;;;4863864;29;19929;-60
2022/06/01 04:53:21;;;;;;;;;;;21.80;90.50;;;;;;4869905;29;19932;-58
2022/06/01 04:55:48;;;;;;;;;;;21.90;90.50;;;;;;4855801;29;19935;-62
2022/06/01 04:58:15;;;;;;;;;;;21.90;90.40;;;;;;4857698;29;19963;-64
2022/06/01 05:00:43;;;;;;;;;;;21.90;90.40;;;;;;4872828;29;19932;-61
2022/06/01 05:03:11;;;;;;;;;;;21.90;90.40;;;;;;4873757;29;19936;-61
2022/06/01 05:05:39;;;;;;;;;;;21.90;90.40;;;;;;4856649;29;19932;-61
2022/06/01 05:08:10;;;;;;;;;;;21.90;90.20;;;;;;4858140;29;19935;-59
2022/06/01 05:10:38;;;;;;;;;;;21.80;90.20;;;;;;4867508;29;19939;-61
2022/06/01 05:13:05;;;;;;;;;;;21.50;84.60;;;;;;4870672;29;19928;-60
2022/06/01 05:15:33;;;;;;;;;;;21.20;83.70;;;;;;4863125;29;19943;-61
2022/06/01 05:18:00;;;;;;;;;;;20.90;83.00;;;;;;4876411;29;19936;-58
2022/06/01 05:20:27;;;;;;;;;;;20.90;86.20;;;;;;4865926;29;19932;-60
2022/06/01 05:22:54;;;;;;;;;;;21.10;85.80;;;;;;4870748;29;19938;-59
2022/06/01 05:25:22;;;;;;;;;;;21.30;85.40;;;;;;4872247;29;20435;-59
2022/06/01 05:27:49;;;;;;;;;;;21.40;85.10;;;;;;4869696;29;19943;-58
2022/06/01 05:30:16;;;;;;;;;;;21.50;85.30;;;;;;4867474;29;20387;-62
2022/06/01 05:32:43;;;;;;;;;;;21.60;85.40;;;;;;4869193;29;19935;-60
2022/06/01 05:35:11;;;;;;;;;;;21.60;85.60;;;;;;4853776;29;20407;-61
2022/06/01 05:37:38;;;;;;;;;;;21.60;86.00;;;;;;4876579;29;19935;-60
2022/06/01 05:40:05;;;;;;;;;;;21.60;87.60;;;;;;4870999;29;19950;-60
2022/06/01 05:42:33;;;;;;;;;;;21.60;87.80;;;;;;4869380;29;19962;-57
2022/06/01 05:45:00;;;;;;;;;;;21.70;87.70;;;;;;4864608;29;19939;-62
2022/06/01 05:47:27;;;;;;;;;;;21.70;88.10;;;;;;4864526;29;19939;-57
2022/06/01 05:49:54;;;;;;;;;;;21.70;88.90;;;;;;4869678;29;20372;-60
2022/06/01 05:52:21;;;;;;;;;;;21.80;89.30;;;;;;4868207;29;19932;-58
2022/06/01 05:54:49;;;;;;;;;;;21.80;89.80;;;;;;4867019;29;19946;-59
2022/06/01 05:57:16;;;;;;;;;;;21.80;89.80;;;;;;4866510;29;19939;-61
2022/06/01 05:59:43;;;;;;;;;;;21.80;89.90;;;;;;4870598;29;20494;-59
2022/06/01 06:02:11;;;;;;;;;;;21.80;90.10;;;;;;4870824;29;19932;-59
2022/06/01 06:04:38;;;;;;;;;;;21.90;90.30;;;;;;4870992;29;19950;-60
2022/06/01 06:07:05;;;;;;;;;;;21.90;90.30;;;;;;4868283;29;19943;-60
2022/06/01 06:09:33;;;;;;;;;;;21.90;90.50;;;;;;4868768;29;20289;-57
2022/06/01 06:12:00;;;;;;;;;;;21.90;90.80;;;;;;4868207;29;20526;-59
2022/06/01 06:14:27;;;;;;;;;;;21.90;91.20;;;;;;4863706;29;19932;-60
2022/06/01 06:16:55;;;;;;;;;;;21.90;91.60;;;;;;4848705;29;19932;-61
2022/06/01 06:19:22;;;;;;;;;;;21.90;92.10;;;;;;4868391;29;20400;-59
2022/06/01 06:21:50;;;;;;;;;;;21.90;93.60;;;;;;4836229;29;19943;-63
2022/06/01 06:24:18;;;;;;;;;;;21.90;93.20;;;;;;4867376;29;19947;-60
2022/06/01 06:26:46;;;;;;;;;;;22.00;94.00;;;;;;4863770;29;19956;-61
2022/06/01 06:29:15;;;;;;;;;;;22.00;95.30;;;;;;4862255;29;19948;-60
2022/06/01 06:31:42;;;;;;;;;;;22.00;95.70;;;;;;4863489;29;19948;-61
2022/06/01 06:34:17;;;;;;;;;;;22.10;96.80;;;;;;4861886;29;19932;-62
2022/06/01 06:36:44;;;;;;;;;;;22.00;97.00;;;;;;4868589;29;19936;-63
2022/06/01 06:39:12;;;;;;;;;;;22.00;97.30;;;;;;4862534;29;19928;-59
2022/06/01 06:41:39;;;;;;;;;;;22.00;97.10;;;;;;4873627;29;20640;-63
2022/06/01 06:44:07;;;;;;;;;;;22.10;97.30;;;;;;4872376;29;20397;-60
2022/06/01 06:46:34;;;;;;;;;;;22.10;98.30;;;;;;4869699;29;20011;-65
2022/06/01 06:49:01;;;;;;;;;;;22.20;98.30;;;;;;4866095;29;19939;-63
2022/06/01 06:51:35;;;;;;;;;;;22.20;98.20;;;;;;4864342;29;19932;-62
2022/06/01 06:54:02;;;;;;;;;;;22.20;98.10;;;;;;4866241;29;20467;-64
2022/06/01 06:56:29;;;;;;;;;;;22.20;98.00;;;;;;4860876;29;19943;-60
2022/06/01 06:58:57;;;;;;;;;;;22.30;98.00;;;;;;4866438;29;19936;-61
2022/06/01 07:01:24;;;;;;;;;;;22.30;97.90;;;;;;4871513;29;19940;-61
2022/06/01 07:03:52;;;;;;;;;;;22.30;98.00;;;;;;4870483;29;19932;-60
2022/06/01 07:06:22;;;;;;;;;;;22.30;98.00;;;;;;4881538;29;19943;-62
2022/06/01 07:08:52;;;;;;;;;;;22.30;98.00;;;;;;4876389;29;20424;-62
2022/06/01 07:11:20;;;;;;;;;;;22.30;98.20;;;;;;4841577;29;20303;-61
2022/06/01 07:13:48;;;;;;;;;;;22.40;97.80;;;;;;4864887;29;20384;-61
2022/06/01 07:16:18;;;;;;;;;;;22.40;97.80;;;;;;4872761;29;20017;-61
2022/06/01 07:18:47;;;;;;;;;;;22.40;97.50;;;;;;4853220;29;19936;-64
2022/06/01 07:21:14;;;;;;;;;;;22.40;97.40;;;;;;4870777;29;19954;-62
2022/06/01 07:23:42;;;;;;;;;;;22.30;97.30;;;;;;4871877;29;19928;-65
2022/06/01 07:26:12;;;;;;;;;;;22.40;97.30;;;;;;4868420;29;19936;-63
2022/06/01 07:28:39;;;;;;;;;;;22.30;97.20;;;;;;4855149;29;20408;-65
2022/06/01 07:31:07;;;;;;;;;;;22.30;97.20;;;;;;4863727;29;20266;-63
2022/06/01 07:33:35;;;;;;;;;;;22.30;97.20;;;;;;4863008;29;19932;-61
2022/06/01 07:36:04;;;;;;;;;;;22.40;97.20;;;;;;4865678;29;19938;-62
2022/06/01 07:44:12;;;;;;;;;;;22.40;97.20;;;;;;4874488;29;19929;-62
2022/06/01 07:46:39;;;;;;;;;;;22.40;96.90;;;;;;4869867;29;19944;-60
2022/06/01 07:49:14;;;;;;;;;;;22.50;97.00;;;;;;4872816;29;19931;-65
2022/06/01 07:52:01;;;;;;;;;;;22.40;96.90;;;;;;4869171;29;19932;-60
2022/06/01 07:54:29;;;;;;;;;;;22.50;96.90;;;;;;4873464;29;20054;-64
2022/06/01 07:56:56;;;;;;;;;;;22.50;96.80;;;;;;4877974;29;19939;-61
2022/06/01 07:59:23;;;;;;;;;;;22.50;96.80;;;;;;4869424;29;19928;-59
2022/06/01 08:01:51;;;;;;;;;;;22.60;96.70;;;;;;4856543;29;19928;-62
2022/06/01 08:04:19;;;;;;;;;;;22.60;96.70;;;;;;4871880;29;19932;-61
2022/06/01 08:06:46;;;;;;;;;;;22.60;96.60;;;;;;4866101;29;19957;-60
2022/06/01 08:09:22;;;;;;;;;;;22.70;96.60;;;;;;4871714;29;20424;-62
2022/06/01 08:14:35;;;;;;;;;;;22.90;96.40;;;;;;4850308;29;19936;-60
2022/06/01 08:17:03;;;;;;;;;;;22.90;96.30;;;;;;4852520;29;19928;-66
2022/06/01 08:19:30;;;;;;;;;;;23.00;96.50;;;;;;4852749;29;20373;-59
2022/06/01 08:21:57;;;;;;;;;;;23.00;96.40;;;;;;4847649;29;19939;-58
2022/06/01 08:24:24;;;;;;;;;;;23.00;96.10;;;;;;4854363;29;20342;-64
2022/06/01 08:26:52;;;;;;;;;;;22.90;96.40;;;;;;4855710;29;19932;-64
2022/06/01 08:29:19;;;;;;;;;;;22.90;96.60;;;;;;4850910;29;19940;-64
2022/06/01 08:31:46;;;;;;;;;;;22.90;96.70;;;;;;4852070;29;20304;-64
2022/06/01 08:34:16;;;;;;;;;;;22.80;96.70;;;;;;4847020;29;19939;-63
2022/06/01 08:36:43;;;;;;;;;;;22.80;96.70;;;;;;4850254;29;19939;-65
2022/06/01 08:39:10;;;;;;;;;;;22.80;96.90;;;;;;4859464;29;20455;-65
2022/06/01 08:41:38;;;;;;;;;;;22.80;96.90;;;;;;4851765;29;19936;-66
2022/06/01 08:44:10;;;;;;;;;;;22.80;96.80;;;;;;4865356;29;19932;-65
2022/06/01 08:46:37;;;;;;;;;;;22.80;96.80;;;;;;4859158;29;19932;-63
2022/06/01 08:49:09;;;;;;;;;;;22.80;96.60;;;;;;4850006;29;19935;-65
2022/06/01 08:51:36;;;;;;;;;;;22.80;96.80;;;;;;4854568;29;20361;-66
2022/06/01 08:54:03;;;;;;;;;;;22.80;96.90;;;;;;4852295;29;19954;-63
2022/06/01 08:56:34;;;;;;;;;;;22.90;97.00;;;;;;4851208;29;19935;-62
2022/06/01 08:59:15;;;;;;;;;;;22.80;96.80;;;;;;4857285;29;19928;-65
2022/06/01 09:02:05;;;;;;;;;;;22.80;95.80;;;;;;4853202;29;19961;-69
2022/06/01 09:04:36;;;;;;;;;;;22.80;93.30;;;;;;4853299;29;19939;-65
2022/06/01 09:07:16;;;;;;;;;;;22.70;92.20;;;;;;4851679;29;19932;-64
2022/06/01 09:09:52;;;;;;;;;;;22.70;90.40;;;;;;4846077;29;19932;-63
2022/06/01 09:12:19;;;;;;;;;;;22.60;88.70;;;;;;4869827;29;19938;-64
2022/06/01 09:14:49;;;;;;;;;;;22.50;87.40;;;;;;4858519;29;19932;-64
2022/06/01 09:17:17;;;;;;;;;;;22.50;85.80;;;;;;4862233;29;19943;-64
2022/06/01 09:22:39;;;;;;;;;;;22.40;82.30;;;;;;4871962;29;20360;-64
2022/06/01 09:25:17;;;;;;;;;;;22.40;82.10;;;;;;4867083;29;19942;-61
2022/06/01 09:27:49;;;;;;;;;;;22.40;82.10;;;;;;4869685;29;20447;-67
2022/06/01 09:30:17;;;;;;;;;;;22.40;81.50;;;;;;4866761;29;19928;-68
2022/06/01 09:32:58;;;;;;;;;;;22.40;80.50;;;;;;4870080;29;19931;-66
2022/06/01 09:35:29;;;;;;;;;;;22.40;80.30;;;;;;4867709;29;19951;-67
2022/06/01 09:38:01;;;;;;;;;;;22.40;80.20;;;;;;4872057;29;19935;-64
2022/06/01 09:40:30;;;;;;;;;;;22.50;79.60;;;;;;4867972;29;20419;-67
2022/06/01 09:43:01;;;;;;;;;;;22.50;79.20;;;;;;4866367;29;19936;-65
2022/06/01 09:45:42;;;;;;;;;;;22.50;79.60;;;;;;4848649;29;19936;-64
2022/06/01 09:48:13;;;;;;;;;;;22.50;80.30;;;;;;4856012;29;19932;-66
2022/06/01 09:50:42;;;;;;;;;;;22.40;80.40;;;;;;4860655;29;20494;-66
2022/06/01 09:53:21;;;;;;;;;;;22.40;80.90;;;;;;4867748;29;20270;-63
2022/06/01 09:55:50;;;;;;;;;;;22.50;81.00;;;;;;4870798;29;20445;-61
2022/06/01 10:07:28;;;;;;;;;;;22.40;81.50;;;;;;4849983;29;19944;-61
2022/06/01 10:09:57;;;;;;;;;;;22.40;81.60;;;;;;4867576;29;19932;-63
2022/06/01 10:12:29;;;;;;;;;;;22.40;81.60;;;;;;4870540;29;19931;-59
2022/06/01 10:14:58;;;;;;;;;;;22.40;81.80;;;;;;4865591;29;19928;-60
2022/06/01 10:17:33;;;;;;;;;;;22.40;81.90;;;;;;4865541;29;19932;-61
2022/06/01 10:20:10;;;;;;;;;;;22.40;82.10;;;;;;4870646;29;19931;-62
2022/06/01 10:23:01;;;;;;;;;;;22.40;82.50;;;;;;4866508;29;19931;-62
2022/06/01 10:25:49;;;;;;;;;;;22.40;83.20;;;;;;4867321;29;19928;-58
2022/06/01 10:28:18;;;;;;;;;;;22.40;83.70;;;;;;4843281;29;19950;-62
2022/06/01 10:31:07;;;;;;;;;;;22.40;84.50;;;;;;4868653;29;19928;-61
2022/06/01 10:33:38;;;;;;;;;;;22.40;85.50;;;;;;4869623;29;20357;-63
2022/06/01 10:36:16;;;;;;;;;;;22.40;86.40;;;;;;4875647;29;19983;-64
2022/06/01 10:38:50;;;;;;;;;;;22.50;87.30;;;;;;4870655;29;19932;-63
2022/06/01 10:41:26;;;;;;;;;;;22.50;87.50;;;;;;4870354;29;19935;-63
2022/06/01 10:43:59;;;;;;;;;;;22.60;87.80;;;;;;4865604;29;19932;-61
2022/06/01 10:46:39;;;;;;;;;;;22.60;88.20;;;;;;4871043;29;19932;-65
2022/06/01 10:49:06;;;;;;;;;;;22.60;88.10;;;;;;4872907;29;19943;-63
2022/06/01 10:51:34;;;;;;;;;;;22.60;88.10;;;;;;4882194;29;19936;-65
2022/06/01 10:54:07;;;;;;;;;;;22.60;88.20;;;;;;4873131;29;19932;-64
2022/06/01 10:56:34;;;;;;;;;;;22.60;88.40;;;;;;4873014;29;19954;-63
2022/06/01 10:59:03;;;;;;;;;;;22.60;88.40;;;;;;4859040;29;19932;-63
2022/06/01 11:01:33;;;;;;;;;;;22.60;88.50;;;;;;4878158;29;20487;-59
2022/06/01 11:04:13;;;;;;;;;;;22.60;88.50;;;;;;4874909;29;19931;-60
2022/06/01 11:06:50;;;;;;;;;;;22.60;88.60;;;;;;4875057;29;19932;-64
2022/06/01 11:09:26;;;;;;;;;;;22.60;88.60;;;;;;4870358;29;19936;-63
2022/06/01 11:12:01;;;;;;;;;;;22.60;88.90;;;;;;4871607;29;19928;-58
2022/06/01 11:14:35;;;;;;;;;;;22.60;89.10;;;;;;4874939;29;19939;-62
2022/06/01 11:17:09;;;;;;;;;;;22.60;89.40;;;;;;4877015;29;19931;-56
2022/06/01 11:19:57;;;;;;;;;;;22.60;89.30;;;;;;4868729;29;19943;-66
2022/06/01 11:22:29;;;;;;;;;;;22.60;89.60;;;;;;4853508;29;20592;-60
2022/06/01 11:24:59;;;;;;;;;;;22.60;89.70;;;;;;4867326;29;19983;-60
2022/06/01 11:27:30;;;;;;;;;;;22.70;89.60;;;;;;4863542;29;19928;-64
2022/06/01 11:29:57;;;;;;;;;;;22.70;89.90;;;;;;4867044;29;19951;-63
2022/06/01 11:32:27;;;;;;;;;;;22.70;89.80;;;;;;4873660;29;19938;-63
2022/06/01 11:35:17;;;;;;;;;;;22.70;90.00;;;;;;4867907;29;19939;-63
2022/06/01 11:37:45;;;;;;;;;;;22.70;89.80;;;;;;4856205;29;19939;-59
2022/06/01 11:40:16;;;;;;;;;;;22.70;89.50;;;;;;4865401;29;19936;-62
2022/06/01 11:42:47;;;;;;;;;;;22.70;89.30;;;;;;4866269;29;19966;-62
2022/06/01 11:45:20;;;;;;;;;;;22.60;89.20;;;;;;4869441;29;19940;-59
2022/06/01 11:47:55;;;;;;;;;;;22.60;89.10;;;;;;4868317;29;19947;-59
2022/06/01 11:50:24;;;;;;;;;;;22.50;89.10;;;;;;4862706;29;19936;-61
2022/06/01 11:52:58;;;;;;;;;;;22.50;89.00;;;;;;4870699;29;19966;-60
2022/06/01 11:55:31;;;;;;;;;;;22.50;89.00;;;;;;4870940;29;19947;-65
2022/06/01 11:58:08;;;;;;;;;;;22.60;89.40;;;;;;4864673;29;19932;-67
2022/06/01 12:00:39;;;;;;;;;;;22.60;89.40;;;;;;4871737;29;19962;-68
2022/06/01 12:03:16;;;;;;;;;;;22.60;90.00;;;;;;4875835;29;20620;-64
2022/06/01 12:06:02;;;;;;;;;;;22.70;89.70;;;;;;4875225;29;20331;-64
2022/06/01 12:09:08;;;;;;;;;;;22.70;89.70;;;;;;4854256;29;19996;-63
2022/06/01 12:11:45;;;;;;;;;;;22.70;89.70;;;;;;4818110;29;19933;-60
2022/06/01 12:14:28;;;;;;;;;;;22.80;89.70;;;;;;4818033;29;19937;-58
2022/06/01 12:17:13;;;;;;;;;;;22.80;89.70;;;;;;4820448;29;19933;-60
2022/06/01 12:19:47;;;;;;;;;;;22.70;89.30;;;;;;4816425;29;20899;-60
2022/06/01 12:28:31;;;;;;;;;;;22.70;89.40;;;;;;4817970;29;19928;-61
2022/06/01 12:31:11;;;;;;;;;;;22.70;89.60;;;;;;4816264;29;19933;-58
2022/06/01 12:33:57;;;;;;;;;;;22.70;89.70;;;;;;4803561;29;20022;-61
2022/06/01 12:36:25;;;;;;;;;;;22.80;89.90;;;;;;4818706;29;19933;-58
2022/06/01 12:38:53;;;;;;;;;;;22.80;90.00;;;;;;4817614;29;19937;-57
2022/06/01 12:41:21;;;;;;;;;;;22.80;90.10;;;;;;4814226;29;19943;-59
2022/06/01 12:43:51;;;;;;;;;;;22.80;90.60;;;;;;4872149;29;19932;-63
2022/06/01 12:46:19;;;;;;;;;;;22.80;91.60;;;;;;4858862;29;20413;-65
2022/06/01 12:48:47;;;;;;;;;;;22.80;91.80;;;;;;4866216;29;19928;-63
2022/06/01 12:51:15;;;;;;;;;;;22.90;92.00;;;;;;4871441;29;19939;-62
2022/06/01 12:53:42;;;;;;;;;;;22.90;92.10;;;;;;4855503;29;20011;-62
2022/06/01 12:56:15;;;;;;;;;;;22.90;92.10;;;;;;4870816;29;20015;-62
2022/06/01 12:58:44;;;;;;;;;;;22.80;92.00;;;;;;4857419;29;19939;-63
2022/06/01 13:01:11;;;;;;;;;;;22.80;92.10;;;;;;4869461;29;19939;-62
2022/06/01 13:03:43;;;;;;;;;;;22.90;91.90;;;;;;4872445;29;19932;-62
2022/06/01 13:06:11;;;;;;;;;;;22.90;92.00;;;;;;4868784;29;19936;-62
2022/06/01 13:08:40;;;;;;;;;;;22.90;91.90;;;;;;4868428;29;19928;-60
2022/06/01 13:11:12;;;;;;;;;;;22.80;91.70;;;;;;4868242;29;19943;-60
2022/06/01 13:13:41;;;;;;;;;;;22.90;91.70;;;;;;4878194;29;20237;-64
2022/06/01 13:16:08;;;;;;;;;;;22.90;91.50;;;;;;4878156;29;19932;-61
2022/06/01 13:18:38;;;;;;;;;;;23.00;91.30;;;;;;4857478;29;19939;-62
2022/06/01 13:21:12;;;;;;;;;;;23.00;91.20;;;;;;4871456;29;20364;-62
2022/06/01 13:23:48;;;;;;;;;;;23.10;90.80;;;;;;4869964;29;19939;-59
2022/06/01 13:26:23;;;;;;;;;;;23.10;90.60;;;;;;4868801;29;19931;-60
2022/06/01 13:28:51;;;;;;;;;;;23.20;90.60;;;;;;4866644;29;19944;-61
2022/06/01 13:31:18;;;;;;;;;;;23.20;90.50;;;;;;4870951;29;19950;-63
2022/06/01 13:33:48;;;;;;;;;;;23.20;90.50;;;;;;4870454;29;19939;-61
2022/06/01 13:36:29;;;;;;;;;;;23.30;90.40;;;;;;4867335;29;19932;-63
2022/06/01 13:39:02;;;;;;;;;;;23.30;90.50;;;;;;4867657;29;19931;-60
2022/06/01 13:41:35;;;;;;;;;;;23.30;90.40;;;;;;4869523;29;19932;-64
2022/06/01 13:44:09;;;;;;;;;;;23.40;90.40;;;;;;4870218;29;19932;-60
2022/06/01 13:46:41;;;;;;;;;;;23.40;90.30;;;;;;4850550;29;19942;-60
2022/06/01 13:49:14;;;;;;;;;;;23.50;90.20;;;;;;4869828;29;19954;-58
2022/06/01 13:51:47;;;;;;;;;;;23.50;90.20;;;;;;4872555;29;19928;-59
2022/06/01 13:54:17;;;;;;;;;;;23.60;90.10;;;;;;4870959;29;19943;-61
2022/06/01 13:56:45;;;;;;;;;;;23.60;90.20;;;;;;4874877;29;19932;-59
2022/06/01 13:59:29;;;;;;;;;;;23.60;90.30;;;;;;4857031;29;20438;-61
2022/06/01 14:02:03;;;;;;;;;;;23.70;90.30;;;;;;4877180;29;19939;-61
2022/06/01 14:04:30;;;;;;;;;;;23.70;90.10;;;;;;4871833;29;19931;-58
2022/06/01 14:07:03;;;;;;;;;;;23.70;89.00;;;;;;4872396;29;19931;-61
2022/06/01 14:09:32;;;;;;;;;;;23.70;88.80;;;;;;4865284;29;19931;-59
2022/06/01 14:12:03;;;;;;;;;;;23.70;88.70;;;;;;4869570;29;20428;-60
2022/06/01 14:14:31;;;;;;;;;;;23.70;89.40;;;;;;4872280;29;19932;-63
2022/06/01 14:16:59;;;;;;;;;;;23.70;89.30;;;;;;4871413;29;19942;-64
2022/06/01 14:19:33;;;;;;;;;;;23.80;89.10;;;;;;4871895;29;19935;-63
2022/06/01 14:22:02;;;;;;;;;;;23.80;88.90;;;;;;4868955;29;19928;-60
2022/06/01 14:28:28;;;;;;;;;;;23.70;88.50;;;;;;4865785;29;19939;-60
2022/06/01 14:30:03;;;;;;;;;;;23.70;88.00;;;;;;4865987;29;19936;-62
2022/06/01 14:32:30;;;;;;;;;;;23.80;88.00;;;;;;4861116;29;20019;-61
2022/06/01 14:34:57;;;;;;;;;;;23.80;88.00;;;;;;4868594;29;19932;-60
2022/06/01 14:37:25;;;;;;;;;;;23.90;87.70;;;;;;4870311;29;19936;-60
2022/06/01 14:39:52;;;;;;;;;;;24.00;87.60;;;;;;4870759;29;20351;-61
2022/06/01 14:42:19;;;;;;;;;;;23.90;87.10;;;;;;4851594;29;19939;-61
2022/06/01 14:44:46;;;;;;;;;;;23.80;86.80;;;;;;4870281;29;19939;-62
2022/06/01 14:47:13;;;;;;;;;;;23.80;86.20;;;;;;4870274;29;19932;-59
2022/06/01 14:49:41;;;;;;;;;;;23.80;85.50;;;;;;4860356;29;19932;-61
2022/06/01 14:52:08;;;;;;;;;;;23.90;85.40;;;;;;4864269;29;19947;-61
2022/06/01 14:54:36;;;;;;;;;;;23.90;85.70;;;;;;4859306;29;20379;-60
2022/06/01 14:57:04;;;;;;;;;;;23.90;85.90;;;;;;4859207;29;20345;-61
2022/06/01 14:59:32;;;;;;;;;;;23.90;86.20;;;;;;4858973;29;19955;-59
2022/06/01 15:01:59;;;;;;;;;;;23.80;86.30;;;;;;4866982;29;19947;-62
2022/06/01 15:04:32;;;;;;;;;;;23.80;86.50;;;;;;4863580;29;19943;-61
2022/06/01 15:06:59;;;;;;;;;;;23.80;86.70;;;;;;4870145;29;19943;-59
2022/06/01 15:09:27;;;;;;;;;;;23.80;86.70;;;;;;4870536;29;19935;-62
2022/06/01 15:11:54;;;;;;;;;;;23.90;86.70;;;;;;4866215;29;19943;-61